Time;durP1;ratioP1;P1;durP2;ratioP2;P2;SDS_P1;SDS_P2;PMS_P1;PMS_P2;Temp;Humidity;BMP_temperature;BMP_pressure;BME280_temperature;BME280_humidity;BME280_pressure;Samples;Min_cycle;Max_cycle;Signal;HPM_P1;HPM_P2
2022/03/23 00:00:49;;;;;;;27.80;16.97;;;;;;;;;;5005928;28;20600;-51
2022/03/23 00:03:16;;;;;;;31.97;17.50;;;;;;;;;;4997870;28;20453;-52
2022/03/23 00:05:42;;;;;;;22.37;16.03;;;;;;;;;;5004560;28;20509;-52
2022/03/23 00:08:11;;;;;;;24.60;16.50;;;;;;;;;;5013855;28;20457;-51
2022/03/23 00:10:37;;;;;;;27.33;16.53;;;;;;;;;;5013409;28;20409;-51
2022/03/23 00:13:04;;;;;;;25.80;16.60;;;;;;;;;;5008908;28;20525;-52
2022/03/23 00:15:30;;;;;;;27.50;16.60;;;;;;;;;;4998572;28;20496;-51
2022/03/23 00:17:57;;;;;;;22.23;14.77;;;;;;;;;;5012270;28;20413;-52
2022/03/23 00:20:24;;;;;;;26.07;15.90;;;;;;;;;;4996969;28;20461;-51
2022/03/23 00:22:50;;;;;;;26.23;16.17;;;;;;;;;;4994257;28;20470;-47
2022/03/23 00:25:16;;;;;;;29.73;15.57;;;;;;;;;;4995261;28;20422;-49
2022/03/23 00:27:42;;;;;;;27.60;16.60;;;;;;;;;;4996927;28;20512;-49
2022/03/23 00:30:10;;;;;;;20.93;15.60;;;;;;;;;;5013181;28;20404;-48
2022/03/23 00:32:36;;;;;;;31.83;16.80;;;;;;;;;;5008235;28;20458;-47
2022/03/23 00:35:03;;;;;;;25.90;17.33;;;;;;;;;;5008188;28;20424;-47
2022/03/23 00:37:29;;;;;;;25.63;16.07;;;;;;;;;;4993943;28;20431;-46
2022/03/23 00:39:55;;;;;;;27.40;16.60;;;;;;;;;;5006252;28;20510;-47
2022/03/23 00:42:21;;;;;;;20.53;14.90;;;;;;;;;;5005775;28;20466;-47
2022/03/23 00:44:47;;;;;;;25.43;15.67;;;;;;;;;;4993687;28;20420;-46
2022/03/23 00:47:14;;;;;;;23.00;16.40;;;;;;;;;;5000218;28;20499;-46
2022/03/23 00:49:40;;;;;;;26.42;15.23;;;;;;;;;;5002755;28;20415;-47
2022/03/23 00:52:06;;;;;;;28.53;16.60;;;;;;;;;;5009317;28;20210;-49
2022/03/23 00:54:36;;;;;;;32.50;15.93;;;;;;;;;;5000165;28;20412;-48
2022/03/23 00:57:04;;;;;;;32.90;16.45;;;;;;;;;;5010250;28;20518;-49
2022/03/23 00:59:30;;;;;;;22.80;15.77;;;;;;;;;;4997454;28;20168;-47
2022/03/23 01:01:56;;;;;;;36.33;17.50;;;;;;;;;;5000706;28;20467;-46
2022/03/23 01:04:23;;;;;;;35.13;16.40;;;;;;;;;;4993210;28;20468;-46
2022/03/23 01:06:52;;;;;;;29.08;17.65;;;;;;;;;;5010720;28;20409;-47
2022/03/23 01:09:22;;;;;;;31.93;16.80;;;;;;;;;;5007054;28;20587;-47
2022/03/23 01:11:48;;;;;;;27.15;16.83;;;;;;;;;;4993104;28;20427;-47
2022/03/23 01:14:14;;;;;;;36.63;18.17;;;;;;;;;;4994260;28;20181;-47
2022/03/23 01:16:40;;;;;;;39.43;18.07;;;;;;;;;;5010221;28;20473;-47
2022/03/23 01:19:06;;;;;;;34.33;20.20;;;;;;;;;;4993066;28;20499;-47
2022/03/23 01:21:32;;;;;;;44.30;20.40;;;;;;;;;;4997204;28;20464;-46
2022/03/23 01:23:58;;;;;;;40.50;20.00;;;;;;;;;;5012127;28;20430;-47
2022/03/23 01:26:24;;;;;;;30.57;20.90;;;;;;;;;;4995452;28;20431;-48
2022/03/23 01:28:50;;;;;;;34.33;17.83;;;;;;;;;;4997293;28;20415;-49
2022/03/23 01:31:16;;;;;;;32.13;18.97;;;;;;;;;;5012070;28;20472;-46
2022/03/23 01:33:42;;;;;;;39.27;19.87;;;;;;;;;;5012319;28;20421;-46
2022/03/23 01:36:08;;;;;;;35.13;18.80;;;;;;;;;;5012167;28;20411;-46
2022/03/23 01:38:34;;;;;;;35.70;19.60;;;;;;;;;;5012136;28;20944;-46
2022/03/23 01:41:00;;;;;;;34.30;19.00;;;;;;;;;;5011669;28;20816;-47
2022/03/23 01:43:26;;;;;;;25.80;17.00;;;;;;;;;;5011486;28;20530;-47
2022/03/23 01:45:53;;;;;;;37.93;19.30;;;;;;;;;;5012218;28;20423;-46
2022/03/23 01:48:19;;;;;;;33.17;18.97;;;;;;;;;;5012223;28;20466;-46
2022/03/23 01:50:45;;;;;;;26.47;17.90;;;;;;;;;;5011712;28;20419;-48
2022/03/23 01:53:11;;;;;;;33.33;19.60;;;;;;;;;;5011885;28;20448;-47
2022/03/23 01:55:37;;;;;;;36.23;19.60;;;;;;;;;;5011745;28;20516;-47
2022/03/23 01:58:03;;;;;;;29.60;17.87;;;;;;;;;;5010788;28;20752;-47
2022/03/23 02:00:29;;;;;;;27.33;17.20;;;;;;;;;;5010242;28;20427;-49
2022/03/23 02:02:55;;;;;;;26.83;16.53;;;;;;;;;;5009560;28;20445;-46
2022/03/23 02:05:21;;;;;;;35.97;18.77;;;;;;;;;;5011143;28;20412;-47
2022/03/23 02:07:47;;;;;;;32.90;17.57;;;;;;;;;;5011687;28;20409;-47
2022/03/23 02:10:14;;;;;;;26.48;16.30;;;;;;;;;;5011889;28;20399;-46
2022/03/23 02:12:40;;;;;;;30.43;16.43;;;;;;;;;;5011671;28;20199;-47
2022/03/23 02:15:11;;;;;;;34.58;17.08;;;;;;;;;;5011820;28;20411;-47
2022/03/23 02:17:36;;;;;;;27.05;17.13;;;;;;;;;;5011826;28;20620;-46
2022/03/23 02:20:03;;;;;;;29.80;16.67;;;;;;;;;;5011549;28;20179;-47
2022/03/23 02:22:29;;;;;;;36.13;17.77;;;;;;;;;;5011537;28;20523;-46
2022/03/23 02:24:57;;;;;;;28.13;16.30;;;;;;;;;;5011710;28;20411;-47
2022/03/23 02:27:23;;;;;;;27.63;17.47;;;;;;;;;;5011599;28;20429;-47
2022/03/23 02:29:49;;;;;;;30.17;17.70;;;;;;;;;;5011588;28;20835;-47
2022/03/23 02:32:15;;;;;;;25.03;16.50;;;;;;;;;;5011709;28;20195;-47
2022/03/23 02:34:41;;;;;;;32.03;19.43;;;;;;;;;;5011481;28;20425;-48
2022/03/23 02:37:08;;;;;;;27.67;17.27;;;;;;;;;;5011361;28;20419;-47
2022/03/23 02:39:35;;;;;;;42.88;16.55;;;;;;;;;;5011150;28;20466;-46
2022/03/23 02:42:01;;;;;;;24.50;16.58;;;;;;;;;;5011268;28;20254;-46
2022/03/23 02:44:27;;;;;;;22.67;16.23;;;;;;;;;;5011636;28;20176;-46
2022/03/23 02:46:53;;;;;;;28.92;16.33;;;;;;;;;;5011493;28;20585;-46
2022/03/23 02:49:20;;;;;;;32.83;20.10;;;;;;;;;;5011332;28;20691;-46
2022/03/23 02:51:46;;;;;;;30.67;17.02;;;;;;;;;;5011189;28;20439;-49
2022/03/23 03:02:43;;;;;;;33.72;19.83;;;;;;;;;;5005391;28;20215;-47
2022/03/23 03:05:10;;;;;;;48.72;23.15;;;;;;;;;;5014996;28;20177;-46
2022/03/23 03:10:22;;;;;;;30.42;17.80;;;;;;;;;;5014740;28;20200;-50
2022/03/23 03:12:49;;;;;;;24.35;16.45;;;;;;;;;;5014746;28;20691;-46
2022/03/23 03:15:16;;;;;;;45.20;18.27;;;;;;;;;;5014671;28;20177;-48
2022/03/23 03:17:42;;;;;;;31.85;18.73;;;;;;;;;;5014977;28;20173;-46
2022/03/23 03:20:09;;;;;;;31.38;16.73;;;;;;;;;;5014115;28;20202;-47
2022/03/23 03:22:35;;;;;;;29.05;16.65;;;;;;;;;;5014273;28;20211;-46
2022/03/23 03:25:02;;;;;;;24.70;15.85;;;;;;;;;;5014364;28;20165;-46
2022/03/23 03:27:30;;;;;;;26.80;16.10;;;;;;;;;;5014391;28;20256;-46
2022/03/23 03:29:56;;;;;;;29.75;15.90;;;;;;;;;;5014365;28;20219;-50
2022/03/23 03:32:22;;;;;;;27.50;16.67;;;;;;;;;;5014382;28;20204;-46
2022/03/23 03:34:48;;;;;;;28.23;15.47;;;;;;;;;;5014103;28;20446;-46
2022/03/23 03:37:14;;;;;;;28.67;16.90;;;;;;;;;;5013910;28;20431;-46
2022/03/23 03:39:40;;;;;;;35.42;16.23;;;;;;;;;;5014156;28;20423;-46
2022/03/23 03:42:07;;;;;;;33.03;15.20;;;;;;;;;;5014098;28;20728;-47
2022/03/23 03:44:33;;;;;;;26.77;15.57;;;;;;;;;;5014212;28;20403;-46
2022/03/23 03:46:59;;;;;;;22.43;15.73;;;;;;;;;;5014283;28;20602;-47
2022/03/23 03:49:25;;;;;;;23.27;14.27;;;;;;;;;;5013969;28;20408;-46
2022/03/23 03:51:52;;;;;;;23.70;15.87;;;;;;;;;;5013971;28;20443;-46
2022/03/23 03:54:18;;;;;;;25.85;17.02;;;;;;;;;;5014040;28;20410;-50
2022/03/23 03:56:44;;;;;;;25.58;16.52;;;;;;;;;;5014274;28;20267;-50
2022/03/23 03:59:10;;;;;;;24.67;14.97;;;;;;;;;;5013673;28;20272;-55
2022/03/23 04:01:36;;;;;;;23.77;16.27;;;;;;;;;;5013808;28;20486;-46
2022/03/23 04:04:02;;;;;;;23.87;14.57;;;;;;;;;;5014010;28;20541;-46
2022/03/23 04:06:28;;;;;;;25.92;16.30;;;;;;;;;;5012954;28;20420;-46
2022/03/23 04:08:54;;;;;;;24.83;14.98;;;;;;;;;;5013563;28;20191;-47
2022/03/23 04:11:20;;;;;;;25.17;16.17;;;;;;;;;;5013523;28;20680;-47
2022/03/23 04:13:46;;;;;;;23.85;15.90;;;;;;;;;;5013800;28;20966;-46
2022/03/23 04:16:12;;;;;;;26.03;15.23;;;;;;;;;;5013138;28;20267;-46
2022/03/23 04:18:38;;;;;;;24.50;16.40;;;;;;;;;;5013687;28;20427;-46
2022/03/23 04:21:05;;;;;;;26.90;16.70;;;;;;;;;;5013310;28;20192;-47
2022/03/23 04:23:32;;;;;;;28.90;16.70;;;;;;;;;;5013200;28;20416;-46
2022/03/23 04:25:58;;;;;;;25.20;17.17;;;;;;;;;;5009379;28;20238;-46
2022/03/23 04:28:24;;;;;;;26.15;16.00;;;;;;;;;;5013675;28;20623;-46
2022/03/23 04:30:50;;;;;;;24.40;15.57;;;;;;;;;;5013098;28;20176;-46
2022/03/23 04:33:16;;;;;;;21.83;13.90;;;;;;;;;;5013085;28;20204;-46
2022/03/23 04:35:42;;;;;;;25.35;15.32;;;;;;;;;;5013067;28;20565;-46
2022/03/23 04:38:08;;;;;;;29.17;16.10;;;;;;;;;;5013168;28;20659;-46
2022/03/23 04:40:34;;;;;;;31.20;15.30;;;;;;;;;;5012934;28;20419;-47
2022/03/23 04:43:00;;;;;;;26.53;15.50;;;;;;;;;;5012823;28;20580;-47
2022/03/23 04:45:26;;;;;;;20.90;14.40;;;;;;;;;;5012866;28;20510;-47
2022/03/23 04:47:52;;;;;;;27.67;16.00;;;;;;;;;;5013331;28;20705;-47
2022/03/23 04:50:19;;;;;;;29.30;16.42;;;;;;;;;;5012770;28;20502;-47
2022/03/23 04:52:45;;;;;;;23.33;14.90;;;;;;;;;;5013067;28;20192;-47
2022/03/23 04:55:13;;;;;;;26.90;16.58;;;;;;;;;;5012847;28;20168;-47
2022/03/23 04:57:39;;;;;;;26.45;17.30;;;;;;;;;;5013202;28;20176;-47
2022/03/23 05:00:10;;;;;;;43.45;19.65;;;;;;;;;;5012485;28;20168;-47
2022/03/23 05:02:36;;;;;;;61.97;27.40;;;;;;;;;;5012363;28;20782;-46
2022/03/23 05:05:03;;;;;;;42.47;19.55;;;;;;;;;;5012801;28;20791;-46
2022/03/23 05:07:29;;;;;;;23.30;14.57;;;;;;;;;;5012610;28;20633;-49
2022/03/23 05:09:55;;;;;;;26.67;16.37;;;;;;;;;;5012386;28;20180;-47
2022/03/23 05:12:21;;;;;;;30.30;17.67;;;;;;;;;;5012464;28;20432;-46
2022/03/23 05:14:47;;;;;;;26.73;15.00;;;;;;;;;;5012589;28;20180;-46
2022/03/23 05:17:13;;;;;;;26.37;17.97;;;;;;;;;;5011608;28;20424;-46
2022/03/23 05:19:39;;;;;;;26.10;16.55;;;;;;;;;;5012215;28;20415;-47
2022/03/23 05:22:05;;;;;;;28.30;17.50;;;;;;;;;;5012553;28;20208;-46
2022/03/23 05:24:31;;;;;;;28.27;16.48;;;;;;;;;;5012372;28;20172;-46
2022/03/23 05:26:57;;;;;;;35.13;18.40;;;;;;;;;;4999119;28;20515;-46
2022/03/23 05:29:23;;;;;;;35.97;20.20;;;;;;;;;;4992746;28;20404;-47
2022/03/23 05:31:49;;;;;;;31.15;18.27;;;;;;;;;;5006642;28;20434;-47
2022/03/23 05:34:15;;;;;;;34.63;17.13;;;;;;;;;;5012224;28;20183;-46
2022/03/23 05:36:41;;;;;;;27.10;17.03;;;;;;;;;;5012065;28;21005;-49
2022/03/23 05:39:07;;;;;;;28.40;17.45;;;;;;;;;;5012099;28;20424;-48
2022/03/23 05:41:33;;;;;;;26.20;15.83;;;;;;;;;;5011632;28;20204;-50
2022/03/23 05:43:59;;;;;;;31.60;17.10;;;;;;;;;;5012258;28;20408;-47
2022/03/23 05:46:25;;;;;;;28.35;16.45;;;;;;;;;;5011969;28;20510;-48
2022/03/23 05:48:53;;;;;;;27.87;16.20;;;;;;;;;;5012197;28;20608;-50
2022/03/23 05:51:19;;;;;;;38.80;17.83;;;;;;;;;;5011584;28;20775;-47
2022/03/23 05:53:45;;;;;;;34.33;17.73;;;;;;;;;;5012140;28;20225;-46
2022/03/23 05:56:11;;;;;;;30.93;18.20;;;;;;;;;;5011879;28;20962;-46
2022/03/23 05:58:37;;;;;;;47.37;23.57;;;;;;;;;;5011834;28;20779;-46
2022/03/23 06:01:03;;;;;;;54.83;27.65;;;;;;;;;;5011680;28;20454;-46
2022/03/23 06:03:30;;;;;;;44.95;20.23;;;;;;;;;;5011548;28;20661;-46
2022/03/23 06:05:56;;;;;;;34.95;18.83;;;;;;;;;;5011974;28;20200;-46
2022/03/23 06:08:22;;;;;;;29.55;18.15;;;;;;;;;;5011796;28;20291;-47
2022/03/23 06:10:48;;;;;;;30.83;19.37;;;;;;;;;;5011791;28;20267;-47
2022/03/23 06:13:14;;;;;;;33.23;17.10;;;;;;;;;;5011451;28;20427;-46
2022/03/23 06:15:40;;;;;;;29.88;15.85;;;;;;;;;;5011706;28;20465;-46
2022/03/23 06:18:06;;;;;;;33.15;16.85;;;;;;;;;;5011725;28;20176;-47
2022/03/23 06:20:32;;;;;;;32.87;17.33;;;;;;;;;;5011577;28;20183;-47
2022/03/23 06:22:58;;;;;;;27.80;17.87;;;;;;;;;;5012004;28;20469;-49
2022/03/23 06:25:27;;;;;;;30.50;18.83;;;;;;;;;;5011385;28;20457;-49
2022/03/23 06:27:54;;;;;;;31.15;18.80;;;;;;;;;;5011842;28;20430;-49
2022/03/23 06:30:20;;;;;;;30.42;19.08;;;;;;;;;;5014961;28;20176;-49
2022/03/23 06:32:46;;;;;;;35.80;17.50;;;;;;;;;;5015201;28;20195;-49
2022/03/23 06:35:12;;;;;;;33.10;19.20;;;;;;;;;;5015498;28;20180;-50
2022/03/23 06:37:37;;;;;;;33.87;19.70;;;;;;;;;;5015485;28;20429;-49
2022/03/23 06:40:05;;;;;;;39.43;20.63;;;;;;;;;;5015227;28;20419;-50
2022/03/23 06:42:31;;;;;;;38.72;23.70;;;;;;;;;;5015239;28;20500;-49
2022/03/23 06:44:57;;;;;;;46.30;23.50;;;;;;;;;;5014988;28;20179;-49
2022/03/23 06:47:23;;;;;;;42.33;22.93;;;;;;;;;;5015285;28;20422;-51
2022/03/23 06:49:49;;;;;;;43.13;22.70;;;;;;;;;;5015280;28;20419;-51
2022/03/23 06:52:16;;;;;;;38.27;20.97;;;;;;;;;;5015513;28;20442;-51
2022/03/23 06:54:42;;;;;;;42.87;21.57;;;;;;;;;;5015372;28;20837;-51
2022/03/23 06:57:08;;;;;;;40.50;21.10;;;;;;;;;;5015154;28;20564;-50
2022/03/23 06:59:34;;;;;;;33.40;20.50;;;;;;;;;;5014583;28;20393;-50
2022/03/23 07:02:00;;;;;;;34.80;20.90;;;;;;;;;;5014340;28;20532;-51
2022/03/23 07:04:26;;;;;;;32.23;20.53;;;;;;;;;;5014223;28;20443;-51
2022/03/23 07:06:52;;;;;;;26.47;19.90;;;;;;;;;;5015340;28;20390;-51
2022/03/23 07:09:38;;;;;;;29.97;20.53;;;;;;;;;;5014382;28;20773;-50
2022/03/23 07:12:05;;;;;;;32.03;20.93;;;;;;;;;;4995608;28;20407;-50
2022/03/23 07:14:32;;;;;;;30.80;19.10;;;;;;;;;;5005949;28;20518;-51
2022/03/23 07:16:58;;;;;;;34.70;21.03;;;;;;;;;;5014917;28;20425;-50
2022/03/23 07:19:24;;;;;;;34.13;20.90;;;;;;;;;;5014585;28;20421;-51
2022/03/23 07:21:51;;;;;;;33.10;19.33;;;;;;;;;;5014408;28;20522;-51
2022/03/23 07:24:17;;;;;;;23.57;17.00;;;;;;;;;;5014939;28;20422;-51
2022/03/23 07:26:43;;;;;;;26.40;18.60;;;;;;;;;;5014576;28;20461;-51
2022/03/23 07:29:09;;;;;;;27.33;17.40;;;;;;;;;;5014583;28;20409;-51
2022/03/23 07:31:36;;;;;;;32.60;17.80;;;;;;;;;;5014322;28;20442;-51
2022/03/23 07:34:02;;;;;;;31.20;18.53;;;;;;;;;;5014785;28;20408;-51
2022/03/23 07:36:28;;;;;;;30.13;18.13;;;;;;;;;;5014101;28;20432;-50
2022/03/23 07:38:54;;;;;;;24.90;17.43;;;;;;;;;;5014609;28;20418;-51
2022/03/23 07:41:20;;;;;;;23.90;16.67;;;;;;;;;;5013062;28;20470;-51
2022/03/23 07:43:46;;;;;;;28.93;17.83;;;;;;;;;;5014431;28;20421;-52
2022/03/23 07:46:12;;;;;;;24.67;17.20;;;;;;;;;;5014257;28;20498;-51
2022/03/23 07:48:38;;;;;;;27.67;17.27;;;;;;;;;;5014095;28;20858;-52
2022/03/23 07:51:05;;;;;;;23.43;16.90;;;;;;;;;;5013756;28;20509;-51
2022/03/23 07:53:31;;;;;;;27.90;18.43;;;;;;;;;;5013986;28;20997;-51
2022/03/23 07:55:57;;;;;;;29.00;16.53;;;;;;;;;;5012497;28;20433;-51
2022/03/23 07:58:25;;;;;;;36.67;18.23;;;;;;;;;;5013953;28;20895;-52
2022/03/23 08:00:51;;;;;;;26.30;16.53;;;;;;;;;;5013672;28;20423;-51
2022/03/23 08:03:17;;;;;;;22.20;16.57;;;;;;;;;;5013459;28;20465;-52
2022/03/23 08:05:44;;;;;;;20.83;16.03;;;;;;;;;;5013934;28;20486;-51
2022/03/23 08:08:10;;;;;;;20.70;16.30;;;;;;;;;;5012814;28;20399;-51
2022/03/23 08:10:41;;;;;;;20.60;16.60;;;;;;;;;;5013221;28;20411;-51
2022/03/23 08:13:09;;;;;;;28.13;16.80;;;;;;;;;;5013652;28;20449;-51
2022/03/23 08:15:36;;;;;;;23.97;16.90;;;;;;;;;;5013757;28;20425;-52
2022/03/23 08:18:02;;;;;;;23.90;16.50;;;;;;;;;;5013352;28;20510;-52
2022/03/23 08:20:35;;;;;;;21.70;14.23;;;;;;;;;;5007832;28;20452;-51
2022/03/23 08:23:04;;;;;;;20.43;15.77;;;;;;;;;;4994007;28;20561;-51
2022/03/23 08:25:30;;;;;;;19.03;15.00;;;;;;;;;;5007701;28;20408;-51
2022/03/23 08:27:57;;;;;;;20.97;16.13;;;;;;;;;;5013755;28;20904;-51
2022/03/23 08:30:24;;;;;;;17.33;15.53;;;;;;;;;;5013019;28;20419;-50
2022/03/23 08:32:52;;;;;;;18.23;16.10;;;;;;;;;;5013082;28;20439;-49
2022/03/23 08:35:18;;;;;;;30.87;17.30;;;;;;;;;;5013496;28;20426;-48
2022/03/23 08:37:44;;;;;;;24.70;16.37;;;;;;;;;;5013046;28;20899;-49
2022/03/23 08:40:10;;;;;;;28.33;17.00;;;;;;;;;;5013147;28;20462;-49
2022/03/23 08:42:36;;;;;;;22.33;16.90;;;;;;;;;;5011539;28;20986;-49
2022/03/23 08:45:05;;;;;;;22.37;16.80;;;;;;;;;;5013220;28;20422;-49
2022/03/23 08:47:31;;;;;;;24.03;18.00;;;;;;;;;;5012720;28;20419;-51
2022/03/23 08:49:57;;;;;;;25.40;19.47;;;;;;;;;;5005411;28;20756;-51
2022/03/23 08:52:29;;;;;;;23.67;18.70;;;;;;;;;;5012895;28;20462;-50
2022/03/23 08:54:55;;;;;;;26.47;16.47;;;;;;;;;;5012797;28;20415;-50
2022/03/23 08:57:22;;;;;;;26.17;17.10;;;;;;;;;;5012832;28;20915;-50
2022/03/23 08:59:49;;;;;;;24.67;17.10;;;;;;;;;;5012869;28;20399;-52
2022/03/23 09:02:17;;;;;;;26.40;17.57;;;;;;;;;;5012102;28;21009;-50
2022/03/23 09:04:43;;;;;;;17.77;15.97;;;;;;;;;;5012596;28;20415;-53
2022/03/23 09:07:09;;;;;;;19.10;17.00;;;;;;;;;;5009544;28;20770;-52
2022/03/23 09:09:35;;;;;;;17.30;15.50;;;;;;;;;;5012566;28;20403;-52
2022/03/23 09:12:01;;;;;;;18.40;16.50;;;;;;;;;;5012570;28;20500;-53
2022/03/23 09:14:28;;;;;;;24.93;16.40;;;;;;;;;;5012658;28;20532;-54
2022/03/23 09:16:54;;;;;;;21.83;16.47;;;;;;;;;;5012688;28;20861;-52
2022/03/23 09:19:21;;;;;;;17.47;15.70;;;;;;;;;;5012079;28;20856;-53
2022/03/23 09:21:47;;;;;;;18.10;16.17;;;;;;;;;;5012366;28;20558;-52
2022/03/23 09:24:14;;;;;;;18.50;15.53;;;;;;;;;;5012544;28;20407;-53
2022/03/23 09:26:40;;;;;;;20.90;16.60;;;;;;;;;;5012628;28;20399;-52
2022/03/23 09:29:10;;;;;;;17.93;15.40;;;;;;;;;;5012312;28;20495;-51
2022/03/23 09:31:37;;;;;;;19.97;15.70;;;;;;;;;;5012097;28;20423;-52
2022/03/23 09:34:03;;;;;;;17.60;15.80;;;;;;;;;;5012278;28;20427;-51
2022/03/23 09:39:17;;;;;;;15.80;14.03;;;;;;;;;;5000868;28;20473;-51
2022/03/23 09:41:45;;;;;;;16.23;14.60;;;;;;;;;;5008799;28;20500;-51
2022/03/23 09:44:11;;;;;;;17.70;14.40;;;;;;;;;;4998429;28;20423;-53
2022/03/23 09:46:38;;;;;;;19.70;15.80;;;;;;;;;;5012971;28;20425;-52
2022/03/23 09:49:06;;;;;;;16.20;14.53;;;;;;;;;;5004521;28;20424;-51
2022/03/23 09:51:33;;;;;;;16.60;14.67;;;;;;;;;;5002468;28;20970;-54
2022/03/23 09:54:01;;;;;;;20.20;14.80;;;;;;;;;;4993039;28;20454;-52
2022/03/23 09:56:27;;;;;;;17.73;15.20;;;;;;;;;;4997663;28;20406;-51
2022/03/23 09:58:55;;;;;;;15.87;14.20;;;;;;;;;;5011882;28;20395;-53
2022/03/23 10:01:27;;;;;;;17.33;14.27;;;;;;;;;;5001407;28;20467;-52
2022/03/23 10:04:17;;;;;;;17.90;14.87;;;;;;;;;;5001744;28;20492;-52
2022/03/23 10:07:02;;;;;;;17.60;15.17;;;;;;;;;;4969420;28;20515;-52
2022/03/23 10:09:49;;;;;;;18.17;13.57;;;;;;;;;;4993745;28;20757;-52
2022/03/23 10:12:34;;;;;;;15.50;13.73;;;;;;;;;;5000143;28;20439;-52
2022/03/23 10:15:06;;;;;;;15.40;13.87;;;;;;;;;;4997603;28;20488;-53
2022/03/23 10:17:32;;;;;;;20.43;13.80;;;;;;;;;;4992125;28;20404;-52
2022/03/23 10:19:59;;;;;;;16.63;14.73;;;;;;;;;;5004766;28;20429;-53
2022/03/23 10:22:27;;;;;;;19.67;15.43;;;;;;;;;;5002721;28;20848;-54
2022/03/23 10:24:53;;;;;;;17.87;14.20;;;;;;;;;;5009997;28;20516;-53
2022/03/23 10:27:22;;;;;;;15.63;14.03;;;;;;;;;;5008612;28;20910;-53
2022/03/23 10:29:52;;;;;;;15.30;13.80;;;;;;;;;;4998863;28;20993;-53
2022/03/23 10:32:21;;;;;;;15.80;13.90;;;;;;;;;;5011587;28;20427;-52
2022/03/23 10:34:55;;;;;;;16.73;14.37;;;;;;;;;;5003300;28;20514;-54
2022/03/23 10:37:24;;;;;;;15.13;13.60;;;;;;;;;;4992160;28;20816;-54
2022/03/23 10:39:51;;;;;;;13.73;12.23;;;;;;;;;;4992104;28;20411;-51
2022/03/23 10:42:19;;;;;;;15.27;13.10;;;;;;;;;;5012581;28;20550;-52
2022/03/23 10:44:45;;;;;;;15.23;12.83;;;;;;;;;;5010222;28;20415;-52
2022/03/23 10:47:31;;;;;;;15.07;13.47;;;;;;;;;;5011524;28;20430;-51
2022/03/23 10:50:18;;;;;;;16.03;14.43;;;;;;;;;;5011402;28;20407;-52
2022/03/23 10:52:53;;;;;;;15.77;14.10;;;;;;;;;;5010968;28;20533;-49
2022/03/23 10:55:21;;;;;;;15.10;13.67;;;;;;;;;;5013842;28;20417;-52
2022/03/23 10:57:52;;;;;;;14.70;13.07;;;;;;;;;;5031130;28;20436;-54
2022/03/23 11:00:26;;;;;;;15.53;14.03;;;;;;;;;;5011843;28;20913;-51
2022/03/23 11:02:55;;;;;;;15.10;13.53;;;;;;;;;;5013242;28;20469;-51
2022/03/23 11:08:25;;;;;;;18.43;13.87;;;;;;;;;;5007033;28;20393;-52
2022/03/23 11:16:30;;;;;;;16.83;12.20;;;;;;;;;;5005027;28;20418;-52
2022/03/23 11:18:57;;;;;;;11.87;10.77;;;;;;;;;;5010480;28;20425;-52
2022/03/23 11:21:23;;;;;;;13.50;12.10;;;;;;;;;;5010946;28;20454;-51
2022/03/23 11:23:49;;;;;;;12.40;11.10;;;;;;;;;;5011778;28;20420;-50
2022/03/23 11:26:15;;;;;;;13.33;11.30;;;;;;;;;;5013167;28;20494;-49
2022/03/23 11:28:42;;;;;;;14.70;12.40;;;;;;;;;;5001210;28;20479;-51
2022/03/23 11:31:09;;;;;;;13.23;12.00;;;;;;;;;;5004240;28;20415;-50
2022/03/23 11:33:36;;;;;;;15.47;13.13;;;;;;;;;;5011016;28;20419;-49
2022/03/23 11:36:03;;;;;;;15.80;14.03;;;;;;;;;;5004550;28;20412;-51
2022/03/23 11:38:29;;;;;;;15.70;14.10;;;;;;;;;;5009765;28;20423;-53
2022/03/23 11:40:56;;;;;;;14.17;12.47;;;;;;;;;;5013425;28;20407;-50
2022/03/23 11:43:23;;;;;;;15.57;14.03;;;;;;;;;;5013930;28;20435;-49
2022/03/23 11:45:50;;;;;;;15.33;13.60;;;;;;;;;;5014454;28;20403;-49
2022/03/23 11:48:42;;;;;;;14.07;12.60;;;;;;;;;;5014394;28;20406;-49
2022/03/23 11:51:08;;;;;;;14.33;12.93;;;;;;;;;;5014222;28;20825;-53
2022/03/23 11:53:40;;;;;;;14.23;12.83;;;;;;;;;;5013966;28;20440;-52
2022/03/23 11:56:06;;;;;;;15.37;13.77;;;;;;;;;;5014204;28;20905;-53
2022/03/23 11:58:39;;;;;;;19.03;13.87;;;;;;;;;;5013900;28;20395;-52
2022/03/23 12:01:09;;;;;;;17.47;14.00;;;;;;;;;;5013985;28;20403;-49
2022/03/23 12:03:41;;;;;;;19.57;14.50;;;;;;;;;;5013861;28;20810;-50
2022/03/23 12:06:11;;;;;;;14.93;13.60;;;;;;;;;;5012368;28;20766;-50
2022/03/23 12:08:58;;;;;;;17.80;14.23;;;;;;;;;;5006980;28;20847;-52
2022/03/23 12:11:34;;;;;;;14.90;13.60;;;;;;;;;;5005064;28;20784;-49
2022/03/23 12:14:00;;;;;;;14.60;13.20;;;;;;;;;;5004611;28;20447;-51
2022/03/23 12:16:45;;;;;;;14.63;13.07;;;;;;;;;;4994325;28;20424;-50
2022/03/23 12:19:11;;;;;;;15.83;14.10;;;;;;;;;;5009075;28;20411;-52
2022/03/23 12:21:53;;;;;;;16.20;14.37;;;;;;;;;;5001479;28;20546;-51
2022/03/23 12:24:42;;;;;;;19.07;15.73;;;;;;;;;;4998219;28;20882;-49
2022/03/23 12:27:14;;;;;;;15.80;14.20;;;;;;;;;;4986842;28;20432;-49
2022/03/23 12:29:40;;;;;;;16.90;13.97;;;;;;;;;;4997324;28;20555;-50
2022/03/23 12:32:08;;;;;;;16.53;14.73;;;;;;;;;;5011056;28;20446;-49
2022/03/23 12:34:39;;;;;;;18.23;15.70;;;;;;;;;;4994616;28;20556;-49
2022/03/23 12:37:11;;;;;;;16.40;13.87;;;;;;;;;;5012089;28;20411;-49
2022/03/23 12:39:42;;;;;;;16.57;14.87;;;;;;;;;;5012934;28;20566;-52
2022/03/23 12:42:11;;;;;;;16.40;14.80;;;;;;;;;;4996842;28;20467;-49
2022/03/23 12:44:37;;;;;;;17.23;15.53;;;;;;;;;;5008263;28;20963;-52
2022/03/23 12:47:08;;;;;;;17.30;15.53;;;;;;;;;;4993648;28;20416;-52
2022/03/23 12:58:08;;;;;;;15.87;14.33;;;;;;;;;;5013026;28;20417;-52
2022/03/23 13:00:44;;;;;;;16.10;14.57;;;;;;;;;;5008498;28;20566;-54
2022/03/23 13:03:19;;;;;;;17.67;15.43;;;;;;;;;;5008166;28;21017;-53
2022/03/23 13:06:00;;;;;;;18.43;14.73;;;;;;;;;;4994803;28;20404;-53
2022/03/23 13:08:42;;;;;;;18.67;16.17;;;;;;;;;;5000935;28;20419;-53
2022/03/23 13:11:10;;;;;;;17.70;14.70;;;;;;;;;;5006522;28;20465;-54
2022/03/23 13:13:36;;;;;;;17.80;16.03;;;;;;;;;;5012154;28;20447;-51
2022/03/23 13:16:03;;;;;;;17.20;15.40;;;;;;;;;;5001543;28;20459;-52
2022/03/23 13:18:30;;;;;;;17.37;15.43;;;;;;;;;;4996122;28;20404;-51
2022/03/23 13:20:57;;;;;;;18.23;15.40;;;;;;;;;;5011487;28;20445;-51
2022/03/23 13:23:23;;;;;;;17.10;15.40;;;;;;;;;;5003027;28;20852;-53
2022/03/23 13:26:09;;;;;;;18.77;16.77;;;;;;;;;;5011326;28;20423;-51
2022/03/23 13:28:38;;;;;;;16.37;14.67;;;;;;;;;;5013214;28;20946;-53
2022/03/23 13:31:07;;;;;;;17.83;15.93;;;;;;;;;;5022819;28;20406;-50
2022/03/23 13:33:44;;;;;;;16.47;14.87;;;;;;;;;;5031745;28;20485;-51
2022/03/23 13:36:14;;;;;;;19.40;17.40;;;;;;;;;;5015835;28;20921;-51
2022/03/23 13:38:42;;;;;;;17.60;15.90;;;;;;;;;;5014915;28;20485;-50
2022/03/23 13:43:53;;;;;;;22.47;15.97;;;;;;;;;;5009806;28;20429;-51
2022/03/23 13:46:23;;;;;;;18.03;16.10;;;;;;;;;;5005461;28;20418;-51
2022/03/23 13:49:01;;;;;;;18.80;16.10;;;;;;;;;;5001023;28;20426;-50
2022/03/23 13:51:34;;;;;;;18.47;16.63;;;;;;;;;;5006121;28;20434;-50
2022/03/23 13:54:00;;;;;;;17.60;15.83;;;;;;;;;;5011377;28;20765;-51
2022/03/23 13:56:28;;;;;;;17.00;15.30;;;;;;;;;;5012084;28;20403;-51
2022/03/23 13:58:54;;;;;;;28.53;16.20;;;;;;;;;;5006146;28;20495;-50
2022/03/23 14:01:20;;;;;;;19.43;17.43;;;;;;;;;;4997905;28;20970;-52
2022/03/23 14:03:46;;;;;;;25.97;17.53;;;;;;;;;;5005635;28;20435;-50
2022/03/23 14:06:15;;;;;;;20.77;17.10;;;;;;;;;;4993713;28;20479;-50
2022/03/23 14:08:52;;;;;;;20.40;17.20;;;;;;;;;;5006519;28;20448;-52
2022/03/23 14:11:19;;;;;;;20.40;18.30;;;;;;;;;;5008430;28;21868;-51
2022/03/23 14:13:52;;;;;;;19.33;17.07;;;;;;;;;;5003612;28;20415;-51
2022/03/23 14:16:23;;;;;;;20.30;18.10;;;;;;;;;;5010054;28;20421;-51
2022/03/23 14:18:49;;;;;;;20.37;17.63;;;;;;;;;;5011394;28;20395;-51
2022/03/23 14:21:23;;;;;;;20.17;18.03;;;;;;;;;;5001934;28;20412;-51
2022/03/23 14:23:51;;;;;;;22.03;19.27;;;;;;;;;;4996227;28;20420;-51
2022/03/23 14:26:23;;;;;;;18.30;16.30;;;;;;;;;;4996687;28;20474;-52
2022/03/23 14:28:49;;;;;;;22.57;19.47;;;;;;;;;;5002134;28;20432;-52
2022/03/23 14:31:19;;;;;;;21.70;19.50;;;;;;;;;;5012190;28;20419;-51
2022/03/23 14:34:01;;;;;;;21.13;18.10;;;;;;;;;;5010361;28;20442;-50
2022/03/23 14:36:28;;;;;;;22.60;17.10;;;;;;;;;;5005522;28;20422;-50
2022/03/23 14:38:54;;;;;;;17.90;16.10;;;;;;;;;;5012683;28;20418;-53
2022/03/23 14:41:21;;;;;;;19.33;17.23;;;;;;;;;;5014007;28;20466;-51
2022/03/23 14:43:50;;;;;;;20.07;17.97;;;;;;;;;;5016908;28;20414;-51
2022/03/23 14:46:21;;;;;;;18.50;16.60;;;;;;;;;;5010526;28;20411;-51
2022/03/23 14:49:06;;;;;;;18.37;15.40;;;;;;;;;;5011297;28;20810;-51
2022/03/23 14:51:32;;;;;;;19.10;15.70;;;;;;;;;;5007025;28;20443;-50
2022/03/23 14:53:59;;;;;;;16.30;14.60;;;;;;;;;;5014293;28;20435;-51